sensor_id;sensor_type;location;lat;lon;timestamp;P1;durP1;ratioP1;P2;durP2;ratioP2
71484;SDS011;59300;52.074;4.758;2022-07-30T00:02:59;13.73;;;5.88;;
71484;SDS011;59300;52.074;4.758;2022-07-30T00:06:19;10.52;;;5.47;;
71484;SDS011;59300;52.074;4.758;2022-07-30T00:09:38;9.63;;;6.68;;
71484;SDS011;59300;52.074;4.758;2022-07-30T00:12:57;9.68;;;6.07;;
71484;SDS011;59300;52.074;4.758;2022-07-30T00:16:16;11.52;;;6.70;;
71484;SDS011;59300;52.074;4.758;2022-07-30T00:19:35;11.32;;;6.25;;
71484;SDS011;59300;52.074;4.758;2022-07-30T00:22:54;12.27;;;7.72;;
71484;SDS011;59300;52.074;4.758;2022-07-30T00:26:12;14.25;;;9.98;;
71484;SDS011;59300;52.074;4.758;2022-07-30T00:29:31;17.83;;;11.55;;
71484;SDS011;59300;52.074;4.758;2022-07-30T00:32:50;21.13;;;10.80;;
71484;SDS011;59300;52.074;4.758;2022-07-30T00:36:09;14.27;;;10.32;;
71484;SDS011;59300;52.074;4.758;2022-07-30T00:39:28;14.13;;;9.20;;
71484;SDS011;59300;52.074;4.758;2022-07-30T00:42:47;23.67;;;11.23;;
71484;SDS011;59300;52.074;4.758;2022-07-30T00:46:06;17.50;;;11.25;;
71484;SDS011;59300;52.074;4.758;2022-07-30T00:49:25;16.60;;;11.43;;
71484;SDS011;59300;52.074;4.758;2022-07-30T00:52:45;20.25;;;11.60;;
71484;SDS011;59300;52.074;4.758;2022-07-30T00:56:04;14.63;;;11.05;;
71484;SDS011;59300;52.074;4.758;2022-07-30T00:59:23;20.08;;;11.70;;
71484;SDS011;59300;52.074;4.758;2022-07-30T01:02:43;21.13;;;12.90;;
71484;SDS011;59300;52.074;4.758;2022-07-30T01:06:02;17.88;;;11.77;;
71484;SDS011;59300;52.074;4.758;2022-07-30T01:09:21;15.57;;;10.60;;
71484;SDS011;59300;52.074;4.758;2022-07-30T01:12:41;21.10;;;11.02;;
71484;SDS011;59300;52.074;4.758;2022-07-30T01:16:01;18.23;;;13.07;;
71484;SDS011;59300;52.074;4.758;2022-07-30T01:19:21;21.05;;;12.85;;
71484;SDS011;59300;52.074;4.758;2022-07-30T01:22:47;17.13;;;12.25;;
71484;SDS011;59300;52.074;4.758;2022-07-30T01:26:15;21.90;;;15.43;;
71484;SDS011;59300;52.074;4.758;2022-07-30T01:29:36;24.50;;;14.80;;
71484;SDS011;59300;52.074;4.758;2022-07-30T01:32:59;24.77;;;15.15;;
71484;SDS011;59300;52.074;4.758;2022-07-30T01:36:20;20.13;;;12.63;;
71484;SDS011;59300;52.074;4.758;2022-07-30T01:39:40;24.80;;;14.77;;
71484;SDS011;59300;52.074;4.758;2022-07-30T01:43:00;21.55;;;13.13;;
71484;SDS011;59300;52.074;4.758;2022-07-30T01:46:20;25.10;;;16.45;;
71484;SDS011;59300;52.074;4.758;2022-07-30T01:49:43;23.13;;;16.45;;
71484;SDS011;59300;52.074;4.758;2022-07-30T01:53:04;19.65;;;14.60;;
71484;SDS011;59300;52.074;4.758;2022-07-30T01:56:24;23.67;;;15.13;;
71484;SDS011;59300;52.074;4.758;2022-07-30T01:59:46;22.90;;;12.75;;
71484;SDS011;59300;52.074;4.758;2022-07-30T02:03:08;22.20;;;14.45;;
71484;SDS011;59300;52.074;4.758;2022-07-30T02:06:33;23.92;;;13.70;;
71484;SDS011;59300;52.074;4.758;2022-07-30T02:10:08;24.05;;;14.65;;
71484;SDS011;59300;52.074;4.758;2022-07-30T02:13:41;23.35;;;15.32;;
71484;SDS011;59300;52.074;4.758;2022-07-30T02:17:05;21.35;;;13.77;;
71484;SDS011;59300;52.074;4.758;2022-07-30T02:20:27;25.17;;;12.98;;
71484;SDS011;59300;52.074;4.758;2022-07-30T02:23:48;25.45;;;16.23;;
71484;SDS011;59300;52.074;4.758;2022-07-30T02:27:13;19.95;;;13.82;;
71484;SDS011;59300;52.074;4.758;2022-07-30T02:30:36;24.48;;;14.50;;
71484;SDS011;59300;52.074;4.758;2022-07-30T02:34:02;26.27;;;15.60;;
71484;SDS011;59300;52.074;4.758;2022-07-30T02:37:23;21.73;;;14.68;;
71484;SDS011;59300;52.074;4.758;2022-07-30T02:40:44;28.60;;;16.00;;
71484;SDS011;59300;52.074;4.758;2022-07-30T02:44:04;25.42;;;15.25;;
71484;SDS011;59300;52.074;4.758;2022-07-30T02:47:24;18.65;;;13.90;;
71484;SDS011;59300;52.074;4.758;2022-07-30T02:50:54;19.05;;;13.65;;
71484;SDS011;59300;52.074;4.758;2022-07-30T02:54:16;21.13;;;13.68;;
71484;SDS011;59300;52.074;4.758;2022-07-30T02:57:37;20.92;;;13.85;;
71484;SDS011;59300;52.074;4.758;2022-07-30T03:00:59;19.83;;;14.15;;
71484;SDS011;59300;52.074;4.758;2022-07-30T03:04:20;19.83;;;13.68;;
71484;SDS011;59300;52.074;4.758;2022-07-30T03:07:40;20.65;;;13.13;;
71484;SDS011;59300;52.074;4.758;2022-07-30T03:11:00;20.20;;;12.98;;
71484;SDS011;59300;52.074;4.758;2022-07-30T03:14:22;21.13;;;14.32;;
71484;SDS011;59300;52.074;4.758;2022-07-30T03:17:42;25.90;;;15.10;;
71484;SDS011;59300;52.074;4.758;2022-07-30T03:21:04;21.77;;;14.23;;
71484;SDS011;59300;52.074;4.758;2022-07-30T03:24:26;17.77;;;13.43;;
71484;SDS011;59300;52.074;4.758;2022-07-30T03:27:45;19.05;;;13.35;;
71484;SDS011;59300;52.074;4.758;2022-07-30T03:31:06;25.08;;;14.63;;
71484;SDS011;59300;52.074;4.758;2022-07-30T03:34:25;21.02;;;14.70;;
71484;SDS011;59300;52.074;4.758;2022-07-30T03:37:45;18.70;;;13.32;;
71484;SDS011;59300;52.074;4.758;2022-07-30T03:41:05;18.33;;;11.50;;
71484;SDS011;59300;52.074;4.758;2022-07-30T03:44:25;17.45;;;12.82;;
71484;SDS011;59300;52.074;4.758;2022-07-30T03:47:46;20.08;;;15.07;;
71484;SDS011;59300;52.074;4.758;2022-07-30T03:51:06;24.92;;;14.57;;
71484;SDS011;59300;52.074;4.758;2022-07-30T03:54:26;15.73;;;12.13;;
71484;SDS011;59300;52.074;4.758;2022-07-30T03:58:04;15.50;;;11.70;;
71484;SDS011;59300;52.074;4.758;2022-07-30T04:01:25;16.55;;;11.50;;
71484;SDS011;59300;52.074;4.758;2022-07-30T04:04:48;11.30;;;9.10;;
71484;SDS011;59300;52.074;4.758;2022-07-30T04:08:07;16.35;;;10.70;;
71484;SDS011;59300;52.074;4.758;2022-07-30T04:11:26;26.13;;;15.15;;
71484;SDS011;59300;52.074;4.758;2022-07-30T04:14:55;25.70;;;14.82;;
71484;SDS011;59300;52.074;4.758;2022-07-30T04:18:14;17.77;;;13.38;;
71484;SDS011;59300;52.074;4.758;2022-07-30T04:21:35;17.13;;;12.80;;
71484;SDS011;59300;52.074;4.758;2022-07-30T04:24:57;19.75;;;12.57;;
71484;SDS011;59300;52.074;4.758;2022-07-30T04:28:16;22.27;;;14.10;;
71484;SDS011;59300;52.074;4.758;2022-07-30T04:31:37;16.73;;;13.27;;
71484;SDS011;59300;52.074;4.758;2022-07-30T04:35:11;18.17;;;13.03;;
71484;SDS011;59300;52.074;4.758;2022-07-30T04:42:16;18.58;;;12.27;;
71484;SDS011;59300;52.074;4.758;2022-07-30T04:45:41;17.58;;;12.05;;
71484;SDS011;59300;52.074;4.758;2022-07-30T04:49:00;14.82;;;11.13;;
71484;SDS011;59300;52.074;4.758;2022-07-30T04:52:23;17.00;;;10.13;;
71484;SDS011;59300;52.074;4.758;2022-07-30T04:55:44;18.40;;;10.45;;
71484;SDS011;59300;52.074;4.758;2022-07-30T04:59:08;15.70;;;9.82;;
71484;SDS011;59300;52.074;4.758;2022-07-30T05:02:28;14.68;;;9.90;;
71484;SDS011;59300;52.074;4.758;2022-07-30T05:05:49;14.90;;;9.63;;
71484;SDS011;59300;52.074;4.758;2022-07-30T05:09:09;14.77;;;9.65;;
71484;SDS011;59300;52.074;4.758;2022-07-30T05:12:32;13.45;;;8.40;;
71484;SDS011;59300;52.074;4.758;2022-07-30T05:15:55;12.45;;;8.88;;
71484;SDS011;59300;52.074;4.758;2022-07-30T05:19:16;12.07;;;8.32;;
71484;SDS011;59300;52.074;4.758;2022-07-30T05:22:36;9.07;;;7.95;;
71484;SDS011;59300;52.074;4.758;2022-07-30T05:25:56;11.95;;;8.02;;
71484;SDS011;59300;52.074;4.758;2022-07-30T05:29:22;11.32;;;7.97;;
71484;SDS011;59300;52.074;4.758;2022-07-30T05:32:53;11.20;;;7.38;;
71484;SDS011;59300;52.074;4.758;2022-07-30T05:36:12;11.93;;;7.22;;
71484;SDS011;59300;52.074;4.758;2022-07-30T05:39:32;9.65;;;6.47;;
71484;SDS011;59300;52.074;4.758;2022-07-30T05:43:11;6.22;;;4.78;;
71484;SDS011;59300;52.074;4.758;2022-07-30T05:46:31;5.85;;;3.70;;
71484;SDS011;59300;52.074;4.758;2022-07-30T05:49:50;6.60;;;3.40;;
71484;SDS011;59300;52.074;4.758;2022-07-30T05:53:09;5.88;;;3.00;;
71484;SDS011;59300;52.074;4.758;2022-07-30T06:00:24;7.70;;;2.88;;
71484;SDS011;59300;52.074;4.758;2022-07-30T06:03:46;7.20;;;2.70;;
71484;SDS011;59300;52.074;4.758;2022-07-30T06:07:24;4.72;;;2.40;;
71484;SDS011;59300;52.074;4.758;2022-07-30T06:10:46;4.90;;;2.60;;
71484;SDS011;59300;52.074;4.758;2022-07-30T06:14:04;4.50;;;2.28;;
71484;SDS011;59300;52.074;4.758;2022-07-30T06:17:23;5.65;;;2.50;;
71484;SDS011;59300;52.074;4.758;2022-07-30T06:20:56;6.33;;;2.40;;
71484;SDS011;59300;52.074;4.758;2022-07-30T06:24:22;4.68;;;2.00;;
71484;SDS011;59300;52.074;4.758;2022-07-30T06:27:56;6.45;;;2.10;;
71484;SDS011;59300;52.074;4.758;2022-07-30T06:31:15;5.18;;;1.95;;
71484;SDS011;59300;52.074;4.758;2022-07-30T06:34:34;6.45;;;2.00;;
71484;SDS011;59300;52.074;4.758;2022-07-30T06:37:54;4.93;;;1.92;;
71484;SDS011;59300;52.074;4.758;2022-07-30T06:41:15;3.70;;;1.80;;
71484;SDS011;59300;52.074;4.758;2022-07-30T06:44:43;6.40;;;2.05;;
71484;SDS011;59300;52.074;4.758;2022-07-30T06:48:13;6.63;;;2.13;;
71484;SDS011;59300;52.074;4.758;2022-07-30T06:51:32;3.20;;;1.80;;
71484;SDS011;59300;52.074;4.758;2022-07-30T06:54:52;5.63;;;1.67;;
71484;SDS011;59300;52.074;4.758;2022-07-30T06:58:28;3.22;;;1.50;;
71484;SDS011;59300;52.074;4.758;2022-07-30T07:02:10;2.83;;;1.70;;
71484;SDS011;59300;52.074;4.758;2022-07-30T07:05:49;3.90;;;1.40;;
71484;SDS011;59300;52.074;4.758;2022-07-30T07:09:08;3.20;;;1.60;;
71484;SDS011;59300;52.074;4.758;2022-07-30T07:12:37;3.83;;;1.70;;
71484;SDS011;59300;52.074;4.758;2022-07-30T07:15:58;2.95;;;1.55;;
71484;SDS011;59300;52.074;4.758;2022-07-30T07:19:19;5.45;;;1.50;;
71484;SDS011;59300;52.074;4.758;2022-07-30T07:22:38;5.75;;;1.65;;
71484;SDS011;59300;52.074;4.758;2022-07-30T07:25:57;5.57;;;1.50;;
71484;SDS011;59300;52.074;4.758;2022-07-30T07:29:16;4.22;;;1.60;;
71484;SDS011;59300;52.074;4.758;2022-07-30T07:32:35;3.60;;;1.20;;
71484;SDS011;59300;52.074;4.758;2022-07-30T07:35:55;3.75;;;1.13;;
71484;SDS011;59300;52.074;4.758;2022-07-30T07:39:19;3.28;;;1.30;;
71484;SDS011;59300;52.074;4.758;2022-07-30T07:42:38;4.35;;;1.52;;
71484;SDS011;59300;52.074;4.758;2022-07-30T07:45:59;2.75;;;1.30;;
71484;SDS011;59300;52.074;4.758;2022-07-30T07:49:21;2.83;;;1.13;;
71484;SDS011;59300;52.074;4.758;2022-07-30T07:52:44;2.95;;;1.27;;
71484;SDS011;59300;52.074;4.758;2022-07-30T07:56:04;2.13;;;0.90;;
71484;SDS011;59300;52.074;4.758;2022-07-30T07:59:23;3.50;;;1.17;;
71484;SDS011;59300;52.074;4.758;2022-07-30T08:02:42;2.65;;;1.10;;
71484;SDS011;59300;52.074;4.758;2022-07-30T08:06:02;2.75;;;1.08;;
71484;SDS011;59300;52.074;4.758;2022-07-30T08:09:39;2.13;;;1.10;;
71484;SDS011;59300;52.074;4.758;2022-07-30T08:13:04;5.13;;;1.20;;
71484;SDS011;59300;52.074;4.758;2022-07-30T08:16:42;3.05;;;1.17;;
71484;SDS011;59300;52.074;4.758;2022-07-30T08:20:35;2.15;;;1.00;;
71484;SDS011;59300;52.074;4.758;2022-07-30T08:23:54;2.47;;;0.90;;
71484;SDS011;59300;52.074;4.758;2022-07-30T08:27:13;2.47;;;1.13;;
71484;SDS011;59300;52.074;4.758;2022-07-30T08:30:34;4.20;;;1.20;;
71484;SDS011;59300;52.074;4.758;2022-07-30T08:33:55;4.90;;;1.40;;
71484;SDS011;59300;52.074;4.758;2022-07-30T08:37:15;1.83;;;1.20;;
71484;SDS011;59300;52.074;4.758;2022-07-30T08:40:34;1.90;;;1.00;;
71484;SDS011;59300;52.074;4.758;2022-07-30T08:43:57;3.90;;;1.25;;
71484;SDS011;59300;52.074;4.758;2022-07-30T08:47:20;18.77;;;2.70;;
71484;SDS011;59300;52.074;4.758;2022-07-30T08:51:16;4.60;;;1.20;;
71484;SDS011;59300;52.074;4.758;2022-07-30T08:55:00;3.47;;;1.40;;
71484;SDS011;59300;52.074;4.758;2022-07-30T08:58:27;3.33;;;1.38;;
71484;SDS011;59300;52.074;4.758;2022-07-30T09:01:47;23.98;;;2.78;;
71484;SDS011;59300;52.074;4.758;2022-07-30T09:05:06;2.47;;;1.17;;
71484;SDS011;59300;52.074;4.758;2022-07-30T09:08:27;3.05;;;1.08;;
71484;SDS011;59300;52.074;4.758;2022-07-30T09:11:46;4.07;;;1.48;;
71484;SDS011;59300;52.074;4.758;2022-07-30T09:15:12;3.63;;;1.42;;
71484;SDS011;59300;52.074;4.758;2022-07-30T09:18:33;6.63;;;1.38;;
71484;SDS011;59300;52.074;4.758;2022-07-30T09:21:57;3.90;;;1.17;;
71484;SDS011;59300;52.074;4.758;2022-07-30T09:25:39;2.55;;;1.00;;
71484;SDS011;59300;52.074;4.758;2022-07-30T09:29:20;2.55;;;1.10;;
71484;SDS011;59300;52.074;4.758;2022-07-30T09:32:59;2.13;;;1.27;;
71484;SDS011;59300;52.074;4.758;2022-07-30T09:36:37;2.70;;;1.13;;
71484;SDS011;59300;52.074;4.758;2022-07-30T09:40:16;2.50;;;1.20;;
71484;SDS011;59300;52.074;4.758;2022-07-30T09:43:54;2.00;;;0.90;;
71484;SDS011;59300;52.074;4.758;2022-07-30T09:47:37;2.05;;;1.00;;
71484;SDS011;59300;52.074;4.758;2022-07-30T09:51:00;2.42;;;1.10;;
71484;SDS011;59300;52.074;4.758;2022-07-30T09:54:19;2.58;;;1.00;;
71484;SDS011;59300;52.074;4.758;2022-07-30T09:57:53;4.28;;;1.00;;
71484;SDS011;59300;52.074;4.758;2022-07-30T10:01:20;2.20;;;1.17;;
71484;SDS011;59300;52.074;4.758;2022-07-30T10:04:46;2.80;;;1.10;;
71484;SDS011;59300;52.074;4.758;2022-07-30T10:08:08;1.58;;;1.00;;
71484;SDS011;59300;52.074;4.758;2022-07-30T10:11:27;2.88;;;1.10;;
71484;SDS011;59300;52.074;4.758;2022-07-30T10:14:52;4.25;;;1.00;;
71484;SDS011;59300;52.074;4.758;2022-07-30T10:18:12;4.40;;;1.13;;
71484;SDS011;59300;52.074;4.758;2022-07-30T10:21:51;2.22;;;1.30;;
71484;SDS011;59300;52.074;4.758;2022-07-30T10:25:11;1.65;;;1.00;;
71484;SDS011;59300;52.074;4.758;2022-07-30T10:29:05;3.33;;;1.20;;
71484;SDS011;59300;52.074;4.758;2022-07-30T10:32:28;1.00;;;0.90;;
71484;SDS011;59300;52.074;4.758;2022-07-30T10:35:46;1.77;;;1.10;;
71484;SDS011;59300;52.074;4.758;2022-07-30T10:39:06;1.77;;;1.10;;
71484;SDS011;59300;52.074;4.758;2022-07-30T10:42:36;2.17;;;1.02;;
71484;SDS011;59300;52.074;4.758;2022-07-30T10:53:35;2.85;;;1.10;;
71484;SDS011;59300;52.074;4.758;2022-07-30T11:00:24;3.60;;;1.30;;
71484;SDS011;59300;52.074;4.758;2022-07-30T11:03:43;9.18;;;1.40;;
71484;SDS011;59300;52.074;4.758;2022-07-30T11:07:36;4.80;;;1.20;;
71484;SDS011;59300;52.074;4.758;2022-07-30T11:10:55;4.63;;;1.33;;
71484;SDS011;59300;52.074;4.758;2022-07-30T11:14:14;3.35;;;1.20;;
71484;SDS011;59300;52.074;4.758;2022-07-30T11:21:21;4.15;;;1.30;;
71484;SDS011;59300;52.074;4.758;2022-07-30T11:28:03;5.45;;;1.73;;
71484;SDS011;59300;52.074;4.758;2022-07-30T11:31:26;3.90;;;1.20;;
71484;SDS011;59300;52.074;4.758;2022-07-30T11:34:50;2.25;;;1.10;;
71484;SDS011;59300;52.074;4.758;2022-07-30T11:38:11;3.67;;;1.35;;
71484;SDS011;59300;52.074;4.758;2022-07-30T11:41:30;6.55;;;1.70;;
71484;SDS011;59300;52.074;4.758;2022-07-30T11:44:52;4.47;;;1.40;;
71484;SDS011;59300;52.074;4.758;2022-07-30T11:48:12;2.47;;;1.27;;
71484;SDS011;59300;52.074;4.758;2022-07-30T11:51:39;3.90;;;1.17;;
71484;SDS011;59300;52.074;4.758;2022-07-30T11:54:59;2.67;;;1.30;;
71484;SDS011;59300;52.074;4.758;2022-07-30T11:58:36;2.70;;;1.20;;
71484;SDS011;59300;52.074;4.758;2022-07-30T12:01:55;2.53;;;1.25;;
71484;SDS011;59300;52.074;4.758;2022-07-30T12:05:15;3.63;;;1.20;;
71484;SDS011;59300;52.074;4.758;2022-07-30T12:08:38;2.67;;;1.30;;
71484;SDS011;59300;52.074;4.758;2022-07-30T12:11:57;2.75;;;1.50;;
71484;SDS011;59300;52.074;4.758;2022-07-30T12:15:27;8.60;;;1.75;;
71484;SDS011;59300;52.074;4.758;2022-07-30T12:18:48;4.55;;;1.23;;
71484;SDS011;59300;52.074;4.758;2022-07-30T12:22:07;2.38;;;1.40;;
71484;SDS011;59300;52.074;4.758;2022-07-30T12:25:25;3.40;;;1.35;;
71484;SDS011;59300;52.074;4.758;2022-07-30T12:28:44;2.55;;;1.20;;
71484;SDS011;59300;52.074;4.758;2022-07-30T12:32:04;2.05;;;1.15;;
71484;SDS011;59300;52.074;4.758;2022-07-30T12:35:39;3.75;;;1.17;;
71484;SDS011;59300;52.074;4.758;2022-07-30T12:39:00;2.83;;;1.10;;
71484;SDS011;59300;52.074;4.758;2022-07-30T12:42:21;4.60;;;1.30;;
71484;SDS011;59300;52.074;4.758;2022-07-30T12:45:40;3.25;;;1.45;;
71484;SDS011;59300;52.074;4.758;2022-07-30T12:49:00;2.80;;;1.25;;
71484;SDS011;59300;52.074;4.758;2022-07-30T12:55:49;3.20;;;1.35;;
71484;SDS011;59300;52.074;4.758;2022-07-30T12:59:19;3.33;;;1.30;;
71484;SDS011;59300;52.074;4.758;2022-07-30T13:02:38;3.28;;;1.23;;
71484;SDS011;59300;52.074;4.758;2022-07-30T13:05:57;2.88;;;1.25;;
71484;SDS011;59300;52.074;4.758;2022-07-30T13:09:20;6.65;;;1.60;;
71484;SDS011;59300;52.074;4.758;2022-07-30T13:12:39;4.55;;;1.35;;
71484;SDS011;59300;52.074;4.758;2022-07-30T13:15:59;3.00;;;1.40;;
71484;SDS011;59300;52.074;4.758;2022-07-30T13:19:19;4.75;;;1.58;;
71484;SDS011;59300;52.074;4.758;2022-07-30T13:22:37;3.83;;;1.40;;
71484;SDS011;59300;52.074;4.758;2022-07-30T13:25:56;5.97;;;1.77;;
71484;SDS011;59300;52.074;4.758;2022-07-30T13:29:16;3.75;;;1.52;;
71484;SDS011;59300;52.074;4.758;2022-07-30T13:32:35;4.65;;;1.70;;
71484;SDS011;59300;52.074;4.758;2022-07-30T13:35:54;5.60;;;1.70;;
71484;SDS011;59300;52.074;4.758;2022-07-30T13:39:13;6.00;;;1.77;;
71484;SDS011;59300;52.074;4.758;2022-07-30T13:42:32;9.05;;;1.60;;
71484;SDS011;59300;52.074;4.758;2022-07-30T13:45:51;6.78;;;1.60;;
71484;SDS011;59300;52.074;4.758;2022-07-30T13:49:11;3.97;;;1.42;;
71484;SDS011;59300;52.074;4.758;2022-07-30T13:52:30;6.00;;;1.95;;
71484;SDS011;59300;52.074;4.758;2022-07-30T13:55:49;4.63;;;1.98;;
71484;SDS011;59300;52.074;4.758;2022-07-30T13:59:07;5.30;;;2.15;;
71484;SDS011;59300;52.074;4.758;2022-07-30T14:02:26;5.28;;;1.88;;
71484;SDS011;59300;52.074;4.758;2022-07-30T14:05:45;3.28;;;1.60;;
71484;SDS011;59300;52.074;4.758;2022-07-30T14:09:04;5.55;;;1.90;;
71484;SDS011;59300;52.074;4.758;2022-07-30T14:12:23;6.63;;;1.80;;
71484;SDS011;59300;52.074;4.758;2022-07-30T14:15:45;6.10;;;1.75;;
71484;SDS011;59300;52.074;4.758;2022-07-30T14:19:04;5.85;;;1.85;;
71484;SDS011;59300;52.074;4.758;2022-07-30T14:22:23;7.10;;;1.92;;
71484;SDS011;59300;52.074;4.758;2022-07-30T14:25:42;6.03;;;1.88;;
71484;SDS011;59300;52.074;4.758;2022-07-30T14:29:01;5.05;;;1.95;;
71484;SDS011;59300;52.074;4.758;2022-07-30T14:32:23;4.25;;;1.50;;
71484;SDS011;59300;52.074;4.758;2022-07-30T14:35:42;6.68;;;1.70;;
71484;SDS011;59300;52.074;4.758;2022-07-30T14:39:01;9.25;;;2.40;;
71484;SDS011;59300;52.074;4.758;2022-07-30T14:42:21;5.32;;;1.55;;
71484;SDS011;59300;52.074;4.758;2022-07-30T14:45:40;3.72;;;1.80;;
71484;SDS011;59300;52.074;4.758;2022-07-30T14:48:59;3.53;;;1.50;;
71484;SDS011;59300;52.074;4.758;2022-07-30T14:52:18;4.20;;;1.65;;
71484;SDS011;59300;52.074;4.758;2022-07-30T14:55:37;6.45;;;1.85;;
71484;SDS011;59300;52.074;4.758;2022-07-30T14:58:56;4.40;;;1.45;;
71484;SDS011;59300;52.074;4.758;2022-07-30T15:02:15;5.57;;;2.00;;
71484;SDS011;59300;52.074;4.758;2022-07-30T15:05:34;9.55;;;2.10;;
71484;SDS011;59300;52.074;4.758;2022-07-30T15:08:53;5.18;;;1.85;;
71484;SDS011;59300;52.074;4.758;2022-07-30T15:12:12;6.60;;;1.85;;
71484;SDS011;59300;52.074;4.758;2022-07-30T15:15:31;4.03;;;1.63;;
71484;SDS011;59300;52.074;4.758;2022-07-30T15:18:50;6.20;;;1.83;;
71484;SDS011;59300;52.074;4.758;2022-07-30T15:22:09;3.80;;;1.75;;
71484;SDS011;59300;52.074;4.758;2022-07-30T15:25:28;4.93;;;1.98;;
71484;SDS011;59300;52.074;4.758;2022-07-30T15:28:47;10.35;;;2.05;;
71484;SDS011;59300;52.074;4.758;2022-07-30T15:32:06;8.75;;;1.90;;
71484;SDS011;59300;52.074;4.758;2022-07-30T15:35:25;7.40;;;2.10;;
71484;SDS011;59300;52.074;4.758;2022-07-30T15:38:43;3.92;;;1.80;;
71484;SDS011;59300;52.074;4.758;2022-07-30T15:42:02;7.72;;;2.15;;
71484;SDS011;59300;52.074;4.758;2022-07-30T15:45:22;7.50;;;2.58;;
71484;SDS011;59300;52.074;4.758;2022-07-30T15:48:41;5.82;;;2.38;;
71484;SDS011;59300;52.074;4.758;2022-07-30T15:52:00;6.82;;;2.67;;
71484;SDS011;59300;52.074;4.758;2022-07-30T15:55:19;7.55;;;2.10;;
71484;SDS011;59300;52.074;4.758;2022-07-30T15:58:38;4.28;;;2.00;;
71484;SDS011;59300;52.074;4.758;2022-07-30T16:01:57;6.40;;;2.47;;
71484;SDS011;59300;52.074;4.758;2022-07-30T16:05:16;2.95;;;2.20;;
71484;SDS011;59300;52.074;4.758;2022-07-30T16:08:34;6.82;;;2.40;;
71484;SDS011;59300;52.074;4.758;2022-07-30T16:11:53;6.55;;;2.80;;
71484;SDS011;59300;52.074;4.758;2022-07-30T16:15:15;5.80;;;2.30;;
71484;SDS011;59300;52.074;4.758;2022-07-30T16:18:34;5.43;;;2.72;;
71484;SDS011;59300;52.074;4.758;2022-07-30T16:21:53;6.30;;;3.13;;
71484;SDS011;59300;52.074;4.758;2022-07-30T16:25:12;5.93;;;2.50;;
71484;SDS011;59300;52.074;4.758;2022-07-30T16:28:31;6.53;;;2.50;;
71484;SDS011;59300;52.074;4.758;2022-07-30T16:31:50;5.30;;;2.10;;
71484;SDS011;59300;52.074;4.758;2022-07-30T16:35:09;8.23;;;2.30;;
71484;SDS011;59300;52.074;4.758;2022-07-30T16:38:31;3.92;;;2.20;;
71484;SDS011;59300;52.074;4.758;2022-07-30T16:41:49;5.82;;;2.30;;
71484;SDS011;59300;52.074;4.758;2022-07-30T16:45:09;4.78;;;2.40;;
71484;SDS011;59300;52.074;4.758;2022-07-30T16:48:28;4.70;;;2.30;;
71484;SDS011;59300;52.074;4.758;2022-07-30T16:51:47;5.65;;;2.00;;
71484;SDS011;59300;52.074;4.758;2022-07-30T16:55:06;4.25;;;1.95;;
71484;SDS011;59300;52.074;4.758;2022-07-30T16:58:26;4.22;;;2.20;;
71484;SDS011;59300;52.074;4.758;2022-07-30T17:01:45;5.53;;;2.30;;
71484;SDS011;59300;52.074;4.758;2022-07-30T17:05:05;5.88;;;2.70;;
71484;SDS011;59300;52.074;4.758;2022-07-30T17:08:24;6.25;;;2.20;;
71484;SDS011;59300;52.074;4.758;2022-07-30T17:11:43;3.63;;;2.00;;
71484;SDS011;59300;52.074;4.758;2022-07-30T17:15:05;3.45;;;1.95;;
71484;SDS011;59300;52.074;4.758;2022-07-30T17:18:24;5.18;;;1.92;;
71484;SDS011;59300;52.074;4.758;2022-07-30T17:21:43;4.18;;;1.90;;
71484;SDS011;59300;52.074;4.758;2022-07-30T17:25:02;4.22;;;1.85;;
71484;SDS011;59300;52.074;4.758;2022-07-30T17:28:22;4.85;;;2.22;;
71484;SDS011;59300;52.074;4.758;2022-07-30T17:31:41;5.45;;;2.10;;
71484;SDS011;59300;52.074;4.758;2022-07-30T17:35:02;6.43;;;2.33;;
71484;SDS011;59300;52.074;4.758;2022-07-30T17:38:20;6.80;;;2.20;;
71484;SDS011;59300;52.074;4.758;2022-07-30T17:41:40;5.55;;;2.05;;
71484;SDS011;59300;52.074;4.758;2022-07-30T17:44:59;5.85;;;2.22;;
71484;SDS011;59300;52.074;4.758;2022-07-30T17:48:18;2.58;;;1.63;;
71484;SDS011;59300;52.074;4.758;2022-07-30T17:51:38;5.50;;;2.08;;
71484;SDS011;59300;52.074;4.758;2022-07-30T17:54:57;7.75;;;2.30;;
71484;SDS011;59300;52.074;4.758;2022-07-30T17:58:16;2.90;;;1.63;;
71484;SDS011;59300;52.074;4.758;2022-07-30T18:01:34;4.90;;;2.10;;
71484;SDS011;59300;52.074;4.758;2022-07-30T18:04:53;6.30;;;1.80;;
71484;SDS011;59300;52.074;4.758;2022-07-30T18:08:12;4.38;;;2.05;;
71484;SDS011;59300;52.074;4.758;2022-07-30T18:11:31;3.65;;;1.90;;
71484;SDS011;59300;52.074;4.758;2022-07-30T18:14:51;5.40;;;2.08;;
71484;SDS011;59300;52.074;4.758;2022-07-30T18:18:10;5.68;;;2.75;;
71484;SDS011;59300;52.074;4.758;2022-07-30T18:21:29;4.38;;;2.50;;
71484;SDS011;59300;52.074;4.758;2022-07-30T18:24:47;6.75;;;2.30;;
71484;SDS011;59300;52.074;4.758;2022-07-30T18:28:07;5.85;;;2.47;;
71484;SDS011;59300;52.074;4.758;2022-07-30T18:31:25;6.45;;;2.78;;
71484;SDS011;59300;52.074;4.758;2022-07-30T18:34:44;5.38;;;2.85;;
71484;SDS011;59300;52.074;4.758;2022-07-30T18:38:03;6.63;;;3.00;;
71484;SDS011;59300;52.074;4.758;2022-07-30T18:41:22;5.90;;;2.72;;
71484;SDS011;59300;52.074;4.758;2022-07-30T18:44:44;7.85;;;2.70;;
71484;SDS011;59300;52.074;4.758;2022-07-30T18:48:03;7.40;;;3.45;;
71484;SDS011;59300;52.074;4.758;2022-07-30T18:51:25;4.05;;;2.55;;
71484;SDS011;59300;52.074;4.758;2022-07-30T18:54:44;7.25;;;2.88;;
71484;SDS011;59300;52.074;4.758;2022-07-30T18:58:03;5.63;;;2.58;;
71484;SDS011;59300;52.074;4.758;2022-07-30T19:01:22;6.72;;;2.38;;
71484;SDS011;59300;52.074;4.758;2022-07-30T19:04:41;5.22;;;2.97;;
71484;SDS011;59300;52.074;4.758;2022-07-30T19:08:04;4.78;;;2.42;;
71484;SDS011;59300;52.074;4.758;2022-07-30T19:11:23;5.05;;;2.83;;
71484;SDS011;59300;52.074;4.758;2022-07-30T19:14:42;4.68;;;2.70;;
71484;SDS011;59300;52.074;4.758;2022-07-30T19:18:01;5.00;;;3.28;;
71484;SDS011;59300;52.074;4.758;2022-07-30T19:21:23;8.13;;;3.20;;
71484;SDS011;59300;52.074;4.758;2022-07-30T19:24:42;8.57;;;3.20;;
71484;SDS011;59300;52.074;4.758;2022-07-30T19:28:01;5.85;;;3.10;;
71484;SDS011;59300;52.074;4.758;2022-07-30T19:31:21;4.40;;;3.00;;
71484;SDS011;59300;52.074;4.758;2022-07-30T19:34:40;7.15;;;3.10;;
71484;SDS011;59300;52.074;4.758;2022-07-30T19:38:03;5.10;;;3.08;;
71484;SDS011;59300;52.074;4.758;2022-07-30T19:41:23;6.53;;;3.50;;
71484;SDS011;59300;52.074;4.758;2022-07-30T19:44:44;4.38;;;3.35;;
71484;SDS011;59300;52.074;4.758;2022-07-30T19:48:04;8.88;;;3.90;;
71484;SDS011;59300;52.074;4.758;2022-07-30T19:51:23;7.20;;;3.70;;
71484;SDS011;59300;52.074;4.758;2022-07-30T19:54:42;5.93;;;3.85;;
71484;SDS011;59300;52.074;4.758;2022-07-30T19:58:00;7.65;;;4.03;;
71484;SDS011;59300;52.074;4.758;2022-07-30T20:01:20;8.65;;;3.95;;
71484;SDS011;59300;52.074;4.758;2022-07-30T20:04:41;6.25;;;3.47;;
71484;SDS011;59300;52.074;4.758;2022-07-30T20:08:03;7.57;;;3.38;;
71484;SDS011;59300;52.074;4.758;2022-07-30T20:11:25;11.52;;;3.85;;
71484;SDS011;59300;52.074;4.758;2022-07-30T20:14:44;5.70;;;3.80;;
71484;SDS011;59300;52.074;4.758;2022-07-30T20:18:03;9.75;;;3.17;;
71484;SDS011;59300;52.074;4.758;2022-07-30T20:21:22;7.00;;;4.05;;
71484;SDS011;59300;52.074;4.758;2022-07-30T20:24:41;9.73;;;3.90;;
71484;SDS011;59300;52.074;4.758;2022-07-30T20:28:00;6.85;;;3.90;;
71484;SDS011;59300;52.074;4.758;2022-07-30T20:31:19;5.63;;;3.40;;
71484;SDS011;59300;52.074;4.758;2022-07-30T20:34:38;6.22;;;3.40;;
71484;SDS011;59300;52.074;4.758;2022-07-30T20:37:57;5.82;;;4.20;;